createdAt,value
2023-01-21T00:03:21.432Z,19.95
2023-01-21T00:08:24.156Z,21.20
2023-01-21T00:13:26.926Z,20.15
2023-01-21T00:18:31.134Z,19.65
2023-01-21T00:23:33.969Z,20.92
2023-01-21T00:28:37.648Z,21.90
2023-01-21T00:33:41.786Z,21.42
2023-01-21T00:38:44.539Z,23.10
2023-01-21T00:43:47.307Z,21.95
2023-01-21T00:48:51.463Z,21.67
2023-01-21T00:53:54.238Z,21.27
2023-01-21T00:58:57.051Z,22.02
2023-01-21T01:04:01.367Z,24.45
2023-01-21T01:09:04.291Z,24.02
2023-01-21T01:14:07.046Z,22.30
2023-01-21T01:19:12.528Z,21.83
2023-01-21T01:24:15.309Z,21.92
2023-01-21T01:29:18.580Z,22.33
2023-01-21T01:34:22.988Z,21.67
2023-01-21T01:39:25.960Z,21.35
2023-01-21T01:44:58.037Z,21.13
2023-01-21T01:50:03.892Z,20.52
2023-01-21T01:55:08.257Z,22.50
2023-01-21T02:00:13.229Z,21.83
2023-01-21T02:05:17.358Z,21.98
2023-01-21T02:10:21.122Z,21.70
2023-01-21T02:15:29.620Z,22.38
2023-01-21T02:21:07.280Z,22.95
2023-01-21T02:26:35.677Z,23.92
2023-01-21T02:31:59.036Z,23.48
2023-01-21T02:37:10.923Z,25.25
2023-01-21T02:42:23.331Z,24.77
2023-01-21T02:47:30.513Z,22.38
2023-01-21T02:52:34.725Z,25.20
2023-01-21T02:57:43.114Z,24.88
2023-01-21T03:03:14.377Z,25.23
2023-01-21T03:08:22.874Z,23.65
2023-01-21T03:13:50.041Z,25.50
2023-01-21T03:18:57.156Z,26.40
2023-01-21T03:24:02.690Z,28.23
2023-01-21T03:29:10.208Z,26.75
2023-01-21T03:34:16.274Z,26.27
2023-01-21T03:39:30.082Z,26.75
2023-01-21T03:44:33.094Z,28.17
2023-01-21T03:49:39.678Z,26.55
2023-01-21T03:54:43.862Z,26.13
2023-01-21T03:59:46.989Z,28.00
2023-01-21T04:04:49.817Z,28.05
2023-01-21T04:09:53.959Z,27.73
2023-01-21T04:14:57.132Z,29.52
2023-01-21T04:19:59.895Z,28.50
2023-01-21T04:25:05.197Z,27.05
2023-01-21T04:30:09.563Z,27.20
2023-01-21T04:35:12.277Z,27.35
2023-01-21T04:40:16.701Z,28.23
2023-01-21T04:45:19.621Z,28.42
2023-01-21T04:50:22.364Z,26.75
2023-01-21T04:55:26.586Z,27.65
2023-01-21T05:00:29.344Z,26.63
2023-01-21T05:05:32.106Z,25.30
2023-01-21T05:10:36.244Z,27.25
2023-01-21T05:15:39.078Z,28.58
2023-01-21T05:20:41.856Z,28.55
2023-01-21T05:25:45.941Z,27.88
2023-01-21T05:30:48.762Z,28.58
2023-01-21T05:35:51.470Z,27.67
2023-01-21T05:40:59.233Z,28.45
2023-01-21T05:46:02.004Z,27.60
2023-01-21T05:51:05.287Z,27.30
2023-01-21T05:56:09.549Z,28.50
2023-01-21T06:01:12.307Z,27.13
2023-01-21T06:06:15.138Z,28.17
2023-01-21T06:11:19.249Z,27.85
2023-01-21T06:16:22.037Z,26.58
2023-01-21T06:21:24.777Z,27.27
2023-01-21T06:26:29.065Z,26.17
2023-01-21T06:31:32.019Z,26.88
2023-01-21T06:36:35.639Z,27.88
2023-01-21T06:41:39.760Z,26.95
2023-01-21T06:46:45.979Z,26.85
2023-01-21T06:51:56.308Z,29.15
2023-01-21T06:57:00.528Z,27.80
2023-01-21T07:02:03.301Z,27.30
2023-01-21T07:07:06.059Z,27.10
2023-01-21T07:12:10.628Z,26.40
2023-01-21T07:17:13.555Z,28.50
2023-01-21T07:22:16.363Z,36.83
2023-01-21T07:27:20.521Z,29.73
2023-01-21T07:32:23.397Z,30.48
2023-01-21T07:37:26.117Z,30.13
2023-01-21T07:42:30.233Z,28.58
2023-01-21T07:47:32.988Z,29.50
2023-01-21T07:52:35.748Z,29.50
2023-01-21T07:57:39.912Z,28.05
2023-01-21T08:02:42.747Z,28.70
2023-01-21T08:07:45.603Z,28.30
2023-01-21T08:12:49.752Z,29.80
2023-01-21T08:17:52.457Z,30.92
2023-01-21T08:22:55.177Z,30.13
2023-01-21T08:28:01.098Z,30.60
2023-01-21T08:33:06.321Z,30.25
2023-01-21T08:38:09.227Z,30.58
2023-01-21T08:43:13.329Z,34.13
2023-01-21T08:48:16.157Z,24.88
2023-01-21T08:53:18.930Z,24.85
2023-01-21T08:58:23.058Z,27.75
2023-01-21T09:03:25.973Z,25.13
2023-01-21T09:08:28.823Z,28.98
2023-01-21T09:13:34.419Z,31.65
2023-01-21T09:18:37.461Z,31.92
2023-01-21T09:23:41.180Z,32.03
2023-01-21T09:28:47.726Z,34.10
2023-01-21T09:33:52.588Z,34.70
2023-01-21T09:38:55.808Z,33.65
2023-01-21T09:44:05.954Z,33.55
2023-01-21T09:49:15.675Z,34.83
2023-01-21T09:54:23.022Z,34.15
2023-01-21T09:59:42.586Z,33.67
2023-01-21T10:04:52.360Z,34.78
2023-01-21T10:10:06.933Z,33.88
2023-01-21T10:15:31.339Z,31.40
2023-01-21T10:20:38.349Z,31.77
2023-01-21T10:25:42.189Z,27.48
2023-01-21T10:30:51.174Z,28.95
2023-01-21T10:36:20.243Z,27.48
2023-01-21T10:41:33.868Z,25.15
2023-01-21T10:46:46.440Z,24.98
2023-01-21T10:51:56.683Z,25.65
2023-01-21T10:57:07.820Z,23.17
2023-01-21T11:02:22.670Z,21.17
2023-01-21T11:07:27.094Z,21.50
2023-01-21T11:12:30.677Z,20.67
2023-01-21T11:17:36.912Z,19.63
2023-01-21T11:22:43.609Z,18.60
2023-01-21T11:27:46.343Z,15.90
2023-01-21T11:32:50.475Z,16.20
2023-01-21T11:37:53.251Z,20.33
2023-01-21T11:42:57.562Z,21.15
2023-01-21T11:48:02.005Z,16.00
2023-01-21T11:53:14.130Z,16.20
2023-01-21T11:58:20.185Z,17.30
2023-01-21T12:03:27.779Z,16.42
2023-01-21T12:08:32.826Z,14.73
2023-01-21T12:13:44.821Z,14.45
2023-01-21T12:19:08.657Z,14.90
2023-01-21T12:24:21.302Z,15.07
2023-01-21T12:29:46.111Z,13.18
2023-01-21T12:34:56.308Z,13.18
2023-01-21T12:40:02.373Z,12.00
2023-01-21T12:45:12.512Z,11.10
2023-01-21T12:50:27.449Z,12.18
2023-01-21T12:55:42.466Z,9.82
2023-01-21T13:00:49.348Z,9.57
2023-01-21T13:05:58.434Z,11.52
2023-01-21T13:11:08.421Z,11.40
2023-01-21T13:16:12.826Z,10.40
2023-01-21T13:21:28.207Z,10.70
2023-01-21T13:26:38.225Z,11.48
2023-01-21T13:31:48.090Z,10.40
2023-01-21T13:37:03.761Z,11.02
2023-01-21T13:42:25.575Z,10.82
2023-01-21T13:47:44.254Z,14.00
2023-01-21T13:53:07.677Z,15.95
2023-01-21T13:58:14.111Z,12.10
2023-01-21T14:03:26.146Z,15.65
2023-01-21T14:08:35.433Z,12.13
2023-01-21T14:13:59.977Z,12.25
2023-01-21T14:19:23.935Z,11.05
2023-01-21T14:24:45.264Z,9.82
2023-01-21T14:29:55.586Z,11.27
2023-01-21T14:35:15.117Z,11.55
2023-01-21T14:40:24.201Z,11.45
2023-01-21T14:45:54.047Z,12.05
2023-01-21T14:51:10.956Z,12.70
2023-01-21T14:56:24.433Z,12.65
2023-01-21T15:01:31.616Z,11.27
2023-01-21T15:06:39.500Z,12.25
2023-01-21T15:11:45.248Z,12.27
2023-01-21T15:16:48.908Z,12.60
2023-01-21T15:22:17.848Z,13.13
2023-01-21T15:27:22.945Z,12.75
2023-01-21T15:32:29.851Z,12.15
2023-01-21T15:37:37.541Z,12.25
2023-01-21T15:42:50.646Z,12.68
2023-01-21T15:48:15.586Z,14.15
2023-01-21T15:53:41.746Z,14.40
2023-01-21T15:58:57.225Z,16.27
2023-01-21T16:04:19.678Z,16.45
2023-01-21T16:09:32.550Z,15.18
2023-01-21T16:14:56.263Z,15.25
2023-01-21T16:20:01.754Z,15.73
2023-01-21T16:25:10.853Z,14.95
2023-01-21T16:30:17.746Z,16.15
2023-01-21T16:35:20.559Z,15.35
2023-01-21T16:40:30.654Z,14.93
2023-01-21T16:45:35.554Z,13.77
2023-01-21T16:50:38.371Z,14.77
2023-01-21T16:55:45.174Z,15.55
2023-01-21T17:01:00.082Z,16.00
2023-01-21T17:06:09.658Z,16.70
2023-01-21T17:11:12.938Z,17.08
2023-01-21T17:16:29.454Z,18.83
2023-01-21T17:21:36.722Z,20.63
2023-01-21T17:26:45.192Z,20.20
2023-01-21T17:31:56.654Z,21.90
2023-01-21T17:37:00.459Z,21.80
2023-01-21T17:42:04.496Z,21.67
2023-01-21T17:47:22.959Z,20.92
2023-01-21T17:52:25.888Z,22.05
2023-01-21T17:57:34.852Z,22.48
2023-01-21T18:02:39.036Z,23.45
2023-01-21T18:07:41.901Z,22.83
2023-01-21T18:12:44.686Z,22.35
2023-01-21T18:17:50.649Z,21.58
2023-01-21T18:22:54.489Z,21.20
2023-01-21T18:27:57.421Z,19.33
2023-01-21T18:33:01.557Z,21.58
2023-01-21T18:38:04.609Z,17.48
2023-01-21T18:43:07.631Z,16.15
2023-01-21T18:48:15.157Z,16.52
2023-01-21T18:53:17.900Z,17.60
2023-01-21T18:58:20.727Z,16.58
2023-01-21T19:03:26.062Z,18.13
2023-01-21T19:08:29.917Z,17.23
2023-01-21T19:13:32.750Z,17.67
2023-01-21T19:18:36.968Z,19.95
2023-01-21T19:23:40.427Z,18.90
2023-01-21T19:28:43.445Z,17.80
2023-01-21T19:33:47.795Z,18.40
2023-01-21T19:38:55.411Z,18.83
2023-01-21T19:43:58.213Z,20.15
2023-01-21T19:49:06.046Z,19.13
2023-01-21T19:54:08.829Z,19.90
2023-01-21T19:59:15.255Z,21.25
2023-01-21T20:04:19.371Z,18.83
2023-01-21T20:09:22.214Z,19.23
2023-01-21T20:14:25.078Z,20.27
2023-01-21T20:19:29.337Z,20.20
2023-01-21T20:24:33.855Z,18.55
2023-01-21T20:29:37.699Z,18.60
2023-01-21T20:34:44.074Z,21.05
2023-01-21T20:39:46.881Z,20.52
2023-01-21T20:44:49.641Z,20.02
2023-01-21T20:49:53.738Z,20.52
2023-01-21T20:54:56.470Z,20.25
2023-01-21T20:59:59.189Z,21.80
2023-01-21T21:05:03.317Z,19.60
2023-01-21T21:10:07.053Z,19.83
2023-01-21T21:15:11.730Z,18.70
2023-01-21T21:20:19.699Z,18.00
2023-01-21T21:25:25.404Z,17.25
2023-01-21T21:30:30.330Z,16.98
2023-01-21T21:35:36.962Z,16.98
2023-01-21T21:40:39.788Z,16.90
2023-01-21T21:46:02.808Z,15.63
2023-01-21T21:51:07.382Z,14.75
2023-01-21T21:56:12.002Z,15.10
2023-01-21T22:01:20.973Z,15.40
2023-01-21T22:06:25.136Z,14.48
2023-01-21T22:11:29.841Z,13.00
2023-01-21T22:16:33.452Z,13.75
2023-01-21T22:21:37.687Z,13.50
2023-01-21T22:26:40.480Z,13.13
2023-01-21T22:31:43.504Z,13.25
2023-01-21T22:36:48.190Z,13.55
2023-01-21T22:41:51.067Z,13.40
2023-01-21T22:46:53.845Z,12.90
2023-01-21T22:51:58.020Z,12.98
2023-01-21T22:57:00.748Z,13.63
2023-01-21T23:02:03.538Z,14.93
2023-01-21T23:07:07.732Z,14.00
2023-01-21T23:12:18.618Z,12.70
2023-01-21T23:17:21.570Z,14.30
2023-01-21T23:22:25.867Z,12.77
2023-01-21T23:27:28.641Z,12.13
2023-01-21T23:32:31.596Z,12.48
2023-01-21T23:37:35.775Z,11.77
2023-01-21T23:42:38.565Z,14.00
2023-01-21T23:47:41.317Z,14.88
2023-01-21T23:52:45.460Z,14.20
2023-01-21T23:57:48.257Z,13.20
